createdAt,value
2019-04-23T00:02:58.972Z,11.73
2019-04-23T00:05:30.328Z,10.83
2019-04-23T00:07:55.908Z,10.60
2019-04-23T00:10:29.388Z,9.83
2019-04-23T00:12:59.289Z,9.70
2019-04-23T00:15:58.643Z,10.53
2019-04-23T00:18:30.147Z,10.83
2019-04-23T00:21:01.567Z,11.40
2019-04-23T00:23:35.067Z,9.47
2019-04-23T00:26:14.775Z,9.40
2019-04-23T00:28:50.275Z,16.00
2019-04-23T00:31:32.894Z,10.67
2019-04-23T00:33:51.172Z,14.20
2019-04-23T00:36:32.018Z,10.10
2019-04-23T00:38:54.009Z,11.40
2019-04-23T00:41:39.186Z,10.13
2019-04-23T00:44:15.097Z,8.97
2019-04-23T00:46:45.171Z,10.70
2019-04-23T00:49:19.768Z,12.93
2019-04-23T00:51:56.969Z,12.70
2019-04-23T00:54:43.459Z,11.40
2019-04-23T00:57:01.158Z,11.87
2019-04-23T00:59:38.709Z,11.70
2019-04-23T01:02:02.727Z,12.70
2019-04-23T01:04:41.869Z,13.60
2019-04-23T01:07:14.614Z,9.43
2019-04-23T01:09:56.122Z,9.97
2019-04-23T01:12:31.270Z,14.83
2019-04-23T01:14:57.373Z,14.97
2019-04-23T01:17:51.121Z,9.43
2019-04-23T01:20:08.071Z,18.37
2019-04-23T01:22:25.152Z,11.97
2019-04-23T01:25:11.076Z,11.97
2019-04-23T01:28:04.440Z,14.83
2019-04-23T01:30:34.313Z,11.07
2019-04-23T01:33:12.249Z,17.27
2019-04-23T01:36:01.487Z,15.77
2019-04-23T01:38:18.465Z,14.80
2019-04-23T01:40:46.140Z,10.50
2019-04-23T01:43:26.425Z,11.00
2019-04-23T01:45:56.167Z,13.47
2019-04-23T01:48:35.708Z,17.27
2019-04-23T01:51:02.538Z,12.50
2019-04-23T01:53:42.324Z,12.90
2019-04-23T01:56:14.006Z,12.80
2019-04-23T02:01:25.806Z,13.73
2019-04-23T02:04:07.771Z,15.73
2019-04-23T02:09:18.386Z,14.80
2019-04-23T02:11:42.159Z,18.73
2019-04-23T02:14:14.348Z,11.10
2019-04-23T02:16:45.935Z,12.93
2019-04-23T02:19:23.838Z,19.83
2019-04-23T02:22:06.865Z,13.23
2019-04-23T02:27:13.527Z,20.13
2019-04-23T02:29:57.431Z,13.67
2019-04-23T02:32:19.600Z,17.00
2019-04-23T02:37:45.886Z,18.83
2019-04-23T02:40:32.119Z,17.23
2019-04-23T02:45:29.737Z,14.73
2019-04-23T02:50:40.499Z,16.27
2019-04-23T02:53:20.223Z,15.97
2019-04-23T02:56:07.690Z,19.67
2019-04-23T03:01:06.405Z,19.30
2019-04-23T03:08:33.029Z,19.57
2019-04-23T03:13:51.058Z,16.97
2019-04-23T03:16:33.885Z,15.37
2019-04-23T03:27:18.801Z,14.43
2019-04-23T03:29:49.738Z,18.23
2019-04-23T03:42:33.100Z,20.57
2019-04-23T03:50:14.784Z,16.40
2019-04-23T03:52:46.537Z,18.53
2019-04-23T03:55:30.287Z,20.40
2019-04-23T03:57:52.232Z,16.43
2019-04-23T04:00:33.356Z,19.80
2019-04-23T04:05:45.507Z,15.70
2019-04-23T04:08:13.723Z,21.33
2019-04-23T04:13:22.762Z,24.13
2019-04-23T04:15:57.243Z,18.33
2019-04-23T04:23:45.384Z,20.73
2019-04-23T04:26:07.102Z,21.40
2019-04-23T04:31:16.254Z,18.57
2019-04-23T04:36:28.139Z,21.30
2019-04-23T04:38:57.198Z,20.27
2019-04-23T04:41:31.954Z,16.03
2019-04-23T04:44:17.146Z,16.43
2019-04-23T04:46:47.768Z,18.30
2019-04-23T04:49:15.086Z,21.70
2019-04-23T04:56:49.770Z,24.03
2019-04-23T04:59:26.247Z,23.27
2019-04-23T05:02:09.366Z,23.10
2019-04-23T05:07:11.038Z,18.13
2019-04-23T05:09:48.551Z,22.67
2019-04-23T05:12:18.949Z,21.40
2019-04-23T05:14:59.654Z,24.93
2019-04-23T05:17:27.969Z,19.20
2019-04-23T05:19:58.956Z,20.17
2019-04-23T05:22:30.429Z,24.87
2019-04-23T05:24:57.274Z,23.70
2019-04-23T05:27:40.638Z,18.90
2019-04-23T05:30:15.247Z,19.27
2019-04-23T05:32:43.752Z,17.50
2019-04-23T05:35:20.286Z,20.07
2019-04-23T05:37:59.029Z,19.07
2019-04-23T05:40:30.516Z,20.70
2019-04-23T05:42:59.037Z,21.17
2019-04-23T05:50:52.527Z,22.30
2019-04-23T05:53:13.431Z,22.53
2019-04-23T05:55:51.740Z,15.80
2019-04-23T05:58:23.239Z,20.77
2019-04-23T06:01:08.744Z,20.87
2019-04-23T06:03:30.920Z,18.43
2019-04-23T06:06:11.227Z,14.97
2019-04-23T06:08:39.109Z,17.47
2019-04-23T06:11:25.573Z,19.00
2019-04-23T06:13:56.137Z,22.27
2019-04-23T06:16:24.860Z,15.97
2019-04-23T06:18:59.345Z,19.87
2019-04-23T06:21:33.960Z,20.83
2019-04-23T06:24:10.403Z,20.97
2019-04-23T06:26:40.081Z,29.43
2019-04-23T06:29:25.695Z,17.47
2019-04-23T06:36:59.883Z,24.37
2019-04-23T06:39:42.753Z,19.10
2019-04-23T06:42:07.807Z,13.03
2019-04-23T06:44:49.827Z,19.27
2019-04-23T06:47:30.851Z,16.77
2019-04-23T06:52:21.763Z,20.60
2019-04-23T06:57:32.949Z,103.63
2019-04-23T07:00:08.031Z,18.83
2019-04-23T07:02:47.629Z,16.77
2019-04-23T07:05:15.884Z,18.63
2019-04-23T07:07:55.234Z,15.13
2019-04-23T07:10:28.351Z,27.67
2019-04-23T07:12:59.370Z,25.47
2019-04-23T07:18:07.547Z,17.00
2019-04-23T07:20:40.053Z,17.63
2019-04-23T07:23:19.034Z,23.37
2019-04-23T07:25:55.930Z,13.17
2019-04-23T07:28:26.103Z,24.60
2019-04-23T07:31:02.409Z,25.23
2019-04-23T07:33:39.810Z,13.27
2019-04-23T07:36:08.554Z,16.03
2019-04-23T07:38:58.289Z,19.67
2019-04-23T07:41:32.495Z,20.83
2019-04-23T07:44:14.278Z,20.33
2019-04-23T07:46:47.755Z,12.40
2019-04-23T07:49:11.405Z,13.27
2019-04-23T07:51:46.886Z,17.40
2019-04-23T07:54:22.690Z,14.17
2019-04-23T07:57:07.566Z,38.27
2019-04-23T07:59:36.339Z,19.27
2019-04-23T08:02:06.224Z,16.93
2019-04-23T08:04:46.182Z,19.13
2019-04-23T08:09:48.059Z,13.87
2019-04-23T08:12:25.516Z,12.67
2019-04-23T08:14:53.544Z,14.63
2019-04-23T08:17:22.593Z,13.67
2019-04-23T08:20:00.961Z,20.70
2019-04-23T08:22:37.225Z,17.03
2019-04-23T08:25:19.121Z,22.63
2019-04-23T08:27:48.578Z,17.63
2019-04-23T08:30:25.514Z,14.37
2019-04-23T08:33:03.693Z,20.90
2019-04-23T08:35:36.204Z,16.93
2019-04-23T08:43:38.915Z,14.37
2019-04-23T08:46:29.723Z,13.83
2019-04-23T08:48:58.699Z,15.50
2019-04-23T08:54:03.430Z,16.83
2019-04-23T08:56:41.127Z,23.10
2019-04-23T08:59:17.772Z,22.23
2019-04-23T09:01:59.434Z,14.13
2019-04-23T09:04:21.788Z,22.17
2019-04-23T09:06:53.120Z,16.80
2019-04-23T09:09:30.130Z,13.93
2019-04-23T09:11:58.111Z,14.97
2019-04-23T09:14:31.902Z,17.00
2019-04-23T09:17:11.156Z,18.57
2019-04-23T09:19:54.521Z,10.40
2019-04-23T09:27:27.425Z,21.57
2019-04-23T09:30:00.048Z,20.70
2019-04-23T09:35:14.319Z,18.23
2019-04-23T09:37:47.117Z,13.90
2019-04-23T09:40:47.442Z,20.70
2019-04-23T09:43:06.826Z,14.47
2019-04-23T09:45:50.187Z,17.93
2019-04-23T09:48:10.208Z,17.40
2019-04-23T09:55:53.087Z,16.10
2019-04-23T09:58:30.307Z,23.93
2019-04-23T10:01:21.681Z,23.60
2019-04-23T10:03:43.073Z,24.13
2019-04-23T10:06:09.711Z,15.80
2019-04-23T10:08:43.022Z,18.70
2019-04-23T10:11:11.920Z,17.23
2019-04-23T10:13:45.686Z,17.60
2019-04-23T10:16:21.535Z,13.67
2019-04-23T10:18:55.029Z,15.93
2019-04-23T10:21:29.084Z,20.17
2019-04-23T10:24:01.506Z,17.60
2019-04-23T10:26:34.385Z,21.57
2019-04-23T10:29:09.741Z,21.23
2019-04-23T10:31:42.213Z,21.60
2019-04-23T10:34:17.068Z,36.17
2019-04-23T10:36:49.544Z,18.57
2019-04-23T10:39:26.367Z,20.87
2019-04-23T10:41:57.579Z,40.87
2019-04-23T10:44:35.352Z,21.20
2019-04-23T10:47:58.953Z,32.13
2019-04-23T10:50:52.833Z,13.17
2019-04-23T10:56:11.337Z,27.83
2019-04-23T10:58:32.117Z,14.30
2019-04-23T11:01:05.087Z,25.77
2019-04-23T11:03:53.962Z,25.37
2019-04-23T11:06:21.402Z,24.97
2019-04-23T11:08:40.531Z,13.97
2019-04-23T11:11:21.900Z,26.17
2019-04-23T11:14:04.477Z,20.93
2019-04-23T11:19:04.339Z,28.30
2019-04-23T11:21:42.738Z,24.90
2019-04-23T11:24:35.654Z,19.83
2019-04-23T11:26:49.849Z,27.17
2019-04-23T11:29:27.990Z,18.10
2019-04-23T11:32:35.184Z,17.13
2019-04-23T11:34:47.974Z,26.13
2019-04-23T11:37:03.986Z,19.93
2019-04-23T11:39:45.897Z,15.60
2019-04-23T11:42:32.328Z,24.17
2019-04-23T11:44:49.863Z,20.23
2019-04-23T11:47:58.391Z,17.90
2019-04-23T11:50:01.975Z,26.37
2019-04-23T11:52:36.631Z,20.17
2019-04-23T11:55:03.074Z,24.57
2019-04-23T11:58:02.720Z,21.10
2019-04-23T12:02:49.705Z,35.73
2019-04-23T12:05:41.403Z,24.07
2019-04-23T12:08:17.010Z,23.30
2019-04-23T12:13:35.438Z,24.33
2019-04-23T12:16:00.463Z,20.17
2019-04-23T12:21:12.865Z,23.37
2019-04-23T12:23:50.603Z,26.90
2019-04-23T12:26:19.735Z,28.73
2019-04-23T12:28:53.640Z,30.77
2019-04-23T12:31:26.369Z,19.33
2019-04-23T12:33:59.451Z,22.90
2019-04-23T12:36:39.509Z,21.60
2019-04-23T12:39:11.142Z,24.63
2019-04-23T12:41:43.339Z,57.23
2019-04-23T12:44:17.962Z,26.53
2019-04-23T12:49:44.581Z,13.20
2019-04-23T12:52:13.021Z,22.07
2019-04-23T12:57:18.600Z,25.87
2019-04-23T12:59:50.239Z,31.73
2019-04-23T13:02:33.495Z,37.70
2019-04-23T13:05:04.674Z,31.83
2019-04-23T13:07:38.105Z,44.20
2019-04-23T13:10:13.205Z,22.93
2019-04-23T13:13:04.228Z,24.03
2019-04-23T13:15:17.271Z,20.77
2019-04-23T13:20:23.547Z,41.27
2019-04-23T13:23:01.865Z,37.23
2019-04-23T13:28:13.619Z,41.00
2019-04-23T13:36:00.993Z,36.87
2019-04-23T13:43:40.101Z,43.07
2019-04-23T13:46:23.008Z,44.43
2019-04-23T13:48:41.918Z,55.90
2019-04-23T13:51:31.983Z,46.67
2019-04-23T13:56:40.647Z,38.57
2019-04-23T13:59:05.690Z,54.33
2019-04-23T14:01:42.332Z,73.63
2019-04-23T14:04:21.315Z,60.77
2019-04-23T14:06:49.522Z,52.40
2019-04-23T14:09:31.585Z,64.93
2019-04-23T14:11:51.535Z,64.03
2019-04-23T14:14:43.704Z,84.00
2019-04-23T14:17:18.668Z,75.47
2019-04-23T14:19:38.288Z,74.37
2019-04-23T14:22:51.310Z,67.17
2019-04-23T14:27:26.571Z,90.93
2019-04-23T14:30:05.538Z,79.73
2019-04-23T14:32:29.095Z,69.90
2019-04-23T14:35:19.943Z,89.47
2019-04-23T14:37:54.889Z,116.93
2019-04-23T14:40:21.723Z,66.10
2019-04-23T14:43:02.254Z,87.80
2019-04-23T14:45:47.076Z,87.47
2019-04-23T14:48:04.302Z,93.27
2019-04-23T14:50:46.308Z,53.27
2019-04-23T14:55:57.242Z,64.13
2019-04-23T14:58:31.288Z,64.83
2019-04-23T15:01:16.043Z,65.87
2019-04-23T15:03:39.929Z,55.00
2019-04-23T15:06:29.495Z,51.83
2019-04-23T15:08:50.069Z,64.77
2019-04-23T15:11:26.370Z,40.90
2019-04-23T15:13:52.153Z,56.07
2019-04-23T15:19:11.655Z,59.33
2019-04-23T15:29:02.727Z,55.47
2019-04-23T15:31:57.639Z,49.97
2019-04-23T15:34:23.755Z,55.30
2019-04-23T15:37:13.535Z,59.57
2019-04-23T15:39:38.086Z,38.23
2019-04-23T15:44:49.077Z,41.20
2019-04-23T15:47:36.087Z,33.73
2019-04-23T15:49:59.158Z,33.00
2019-04-23T15:52:37.504Z,57.77
2019-04-23T15:55:01.522Z,36.53
2019-04-23T16:00:25.854Z,41.13
2019-04-23T16:02:17.626Z,39.40
2019-04-23T16:04:51.108Z,41.33
2019-04-23T16:07:41.342Z,41.67
2019-04-23T16:10:28.479Z,34.17
2019-04-23T16:13:02.504Z,44.33
2019-04-23T16:15:35.507Z,49.20
2019-04-23T16:18:23.686Z,33.77
2019-04-23T16:23:21.616Z,33.93
2019-04-23T16:26:01.901Z,35.17
2019-04-23T16:28:42.270Z,32.87
2019-04-23T16:31:08.080Z,32.87
2019-04-23T16:33:39.583Z,40.57
2019-04-23T16:36:19.220Z,32.27
2019-04-23T16:38:52.218Z,35.47
2019-04-23T16:41:24.415Z,31.43
2019-04-23T16:44:07.965Z,27.20
2019-04-23T16:46:31.769Z,45.37
2019-04-23T16:49:15.358Z,40.33
2019-04-23T16:51:59.740Z,37.03
2019-04-23T16:54:19.327Z,33.60
2019-04-23T16:57:12.020Z,34.57
2019-04-23T16:59:18.502Z,32.33
2019-04-23T17:02:01.614Z,28.73
2019-04-23T17:04:30.723Z,35.67
2019-04-23T17:07:02.312Z,32.73
2019-04-23T17:09:46.231Z,29.93
2019-04-23T17:12:10.473Z,27.93
2019-04-23T17:14:49.714Z,45.53
2019-04-23T17:17:15.630Z,31.67
2019-04-23T17:19:50.433Z,36.57
2019-04-23T17:22:24.930Z,34.13
2019-04-23T17:25:05.553Z,33.20
2019-04-23T17:27:41.518Z,30.60
2019-04-23T17:30:11.973Z,29.90
2019-04-23T17:32:46.857Z,32.03
2019-04-23T17:35:23.934Z,28.93
2019-04-23T17:38:00.428Z,25.73
2019-04-23T17:40:30.604Z,32.63
2019-04-23T17:43:01.501Z,36.57
2019-04-23T17:50:58.025Z,34.00
2019-04-23T17:53:26.839Z,24.93
2019-04-23T17:56:08.926Z,28.10
2019-04-23T17:58:35.402Z,29.83
2019-04-23T18:01:22.331Z,23.93
2019-04-23T18:03:55.881Z,33.53
2019-04-23T18:06:37.281Z,29.87
2019-04-23T18:09:11.042Z,35.23
2019-04-23T18:11:31.204Z,29.63
2019-04-23T18:16:48.118Z,30.83
2019-04-23T18:19:16.934Z,32.30
2019-04-23T18:21:58.958Z,19.83
2019-04-23T18:24:27.924Z,32.23
2019-04-23T18:27:06.788Z,25.03
2019-04-23T18:37:29.996Z,21.83
2019-04-23T18:40:00.421Z,23.73
2019-04-23T18:42:40.786Z,31.57
2019-04-23T18:45:16.713Z,29.80
2019-04-23T18:47:47.492Z,28.63
2019-04-23T18:50:24.906Z,22.77
2019-04-23T18:55:37.107Z,16.33
2019-04-23T18:58:02.255Z,24.80
2019-04-23T19:00:45.667Z,30.80
2019-04-23T19:03:19.724Z,29.43
2019-04-23T19:06:00.341Z,25.43
2019-04-23T19:08:54.172Z,22.27
2019-04-23T19:11:38.429Z,22.00
2019-04-23T19:14:03.140Z,24.83
2019-04-23T19:16:41.609Z,26.50
2019-04-23T19:19:09.641Z,30.83
2019-04-23T19:22:06.913Z,33.67
2019-04-23T19:24:14.065Z,22.73
2019-04-23T19:29:36.865Z,23.50
2019-04-23T19:31:56.896Z,33.53
2019-04-23T19:39:38.188Z,29.43
2019-04-23T19:42:26.705Z,27.77
2019-04-23T19:49:50.768Z,34.13
2019-04-23T19:52:52.081Z,27.20
2019-04-23T19:55:00.043Z,23.87
2019-04-23T19:57:54.948Z,23.30
2019-04-23T20:00:14.073Z,26.83
2019-04-23T20:03:04.019Z,35.20
2019-04-23T20:05:13.523Z,24.47
2019-04-23T20:08:04.140Z,20.90
2019-04-23T20:10:27.656Z,20.00
2019-04-23T20:13:02.181Z,29.10
2019-04-23T20:15:52.147Z,23.30
2019-04-23T20:18:05.140Z,23.00
2019-04-23T20:23:29.846Z,26.67
2019-04-23T20:28:51.184Z,31.53
2019-04-23T20:32:06.026Z,29.33
2019-04-23T20:34:14.124Z,31.27
2019-04-23T20:49:43.012Z,28.73
2019-04-23T20:52:07.124Z,29.30
2019-04-23T21:00:04.747Z,25.47
2019-04-23T21:10:34.808Z,27.27
2019-04-23T21:18:15.984Z,22.67
2019-04-23T21:25:49.047Z,27.03
2019-04-23T21:28:35.906Z,29.70
2019-04-23T21:31:09.033Z,27.50
2019-04-23T21:33:43.832Z,31.37
2019-04-23T21:39:40.764Z,32.53
2019-04-23T21:41:56.775Z,26.97
2019-04-23T21:44:46.814Z,30.57
2019-04-23T21:47:06.025Z,33.10
2019-04-23T21:49:57.965Z,25.90
2019-04-23T21:52:11.447Z,23.13
2019-04-23T21:57:31.006Z,33.50
2019-04-23T21:59:55.475Z,29.70
2019-04-23T22:02:38.469Z,26.50
2019-04-23T22:05:09.058Z,28.87
2019-04-23T22:08:20.546Z,30.30
2019-04-23T22:10:09.199Z,30.30
2019-04-23T22:13:09.502Z,33.50
2019-04-23T22:15:22.252Z,23.43
2019-04-23T22:17:50.200Z,26.50
2019-04-23T22:25:56.465Z,27.23
2019-04-23T22:28:40.361Z,30.30
2019-04-23T22:31:23.140Z,35.43
2019-04-23T22:34:01.504Z,19.03
2019-04-23T22:36:20.998Z,25.23
2019-04-23T22:39:11.584Z,32.03
2019-04-23T22:41:49.115Z,26.60
2019-04-23T22:44:32.903Z,34.87
2019-04-23T22:47:03.702Z,28.47
2019-04-23T22:49:47.419Z,27.57
2019-04-23T22:52:23.077Z,33.13
2019-04-23T22:55:02.062Z,29.17
2019-04-23T23:00:19.362Z,26.90
2019-04-23T23:06:10.976Z,36.03
2019-04-23T23:08:31.241Z,27.07
2019-04-23T23:11:12.294Z,32.10
2019-04-23T23:14:07.114Z,29.93
2019-04-23T23:16:27.821Z,31.13
2019-04-23T23:19:14.521Z,37.33
2019-04-23T23:21:59.582Z,27.83
2019-04-23T23:24:18.630Z,31.63
2019-04-23T23:29:50.195Z,27.33
2019-04-23T23:32:24.460Z,30.23
2019-04-23T23:35:14.624Z,26.80
2019-04-23T23:37:37.226Z,24.37
2019-04-23T23:40:20.318Z,34.83
2019-04-23T23:42:56.194Z,26.57
2019-04-23T23:48:08.049Z,33.60
2019-04-23T23:53:29.604Z,35.33
2019-04-23T23:56:12.719Z,22.70
2019-04-23T23:58:53.978Z,34.50
